Time,TemperatureF,DewpointF,PressureIn,WindDirection,WindDirectionDegrees,WindSpeedMPH,WindSpeedGustMPH,Humidity,HourlyPrecipIn,Conditions,Clouds,dailyrainin,SolarRadiationWatts/m^2,SoftwareType,DateUTC
2013-02-20 00:00:00,22.5,18.9,29.75,WSW,241,12.6,20.0,86,0.00,-SN,OVC,0.27,0.0,WeatherDisplay:10.37,2013-02-20 05:00:00,
2013-02-20 00:05:00,22.8,20.3,29.77,WSW,246,6.0,6.0,90,0.00,,,0.00,0.00,VWS V14.01,2013-02-20 05:05:00,
2013-02-20 00:10:00,22.9,20.1,29.77,West,269,5.0,12.0,89,0.00,,,0.00,0.00,VWS V14.01,2013-02-20 05:10:00,
2013-02-20 00:15:00,23.0,20.0,29.77,WSW,246,8.0,8.0,88,0.00,,,0.00,0.00,VWS V14.01,2013-02-20 05:15:00,
2013-02-20 00:20:00,23.0,18.6,29.75,West,259,17.6,26.0,83,0.00,-SN,OVC,0.00,0.0,WeatherDisplay:10.37,2013-02-20 05:20:00,
2013-02-20 00:25:00,23.2,20.2,29.77,WSW,238,8.0,12.0,88,0.00,,,0.00,0.00,VWS V14.01,2013-02-20 05:25:00,
2013-02-20 00:30:00,23.2,19.9,29.77,West,259,9.0,13.0,87,0.00,,,0.00,0.00,VWS V14.01,2013-02-20 05:30:00,
2013-02-20 00:35:00,23.1,17.8,29.75,WSW,255,11.8,24.2,80,0.00,-SN,OVC,0.00,0.0,WeatherDisplay:10.37,2013-02-20 05:35:00,
2013-02-20 00:40:00,23.3,19.5,29.77,West,271,10.0,10.0,85,0.00,,,0.00,0.00,VWS V14.01,2013-02-20 05:40:00,
2013-02-20 00:45:00,23.2,19.4,29.77,WSW,237,5.0,7.0,85,0.00,,,0.00,0.00,VWS V14.01,2013-02-20 05:45:00,
2013-02-20 00:50:00,23.1,19.0,29.77,West,276,8.0,10.0,84,0.00,,,0.00,0.00,VWS V14.01,2013-02-20 05:50:00,
2013-02-20 00:55:00,23.2,18.8,29.78,WSW,258,8.0,13.0,83,0.00,,,0.00,0.00,VWS V14.01,2013-02-20 05:55:00,
2013-02-20 01:00:00,23.0,16.9,29.76,WSW,248,13.4,21.9,77,0.00,-SN,OVC,0.00,0.0,WeatherDisplay:10.37,2013-02-20 06:00:00,
2013-02-20 01:05:00,23.0,16.9,29.75,West,265,11.4,21.9,77,0.00,-SN,OVC,0.00,0.0,WeatherDisplay:10.37,2013-02-20 06:05:00,
2013-02-20 01:10:00,23.4,19.0,29.78,WSW,256,8.0,13.0,83,0.00,,,0.00,0.00,VWS V14.01,2013-02-20 06:10:00,
2013-02-20 01:15:00,23.1,17.0,29.76,West,259,15.6,25.3,77,0.00,-SN,OVC,0.00,0.0,WeatherDisplay:10.37,2013-02-20 06:15:00,
2013-02-20 01:20:00,23.4,18.7,29.78,West,261,8.0,11.0,82,0.00,,,0.00,0.00,VWS V14.01,2013-02-20 06:20:00,
2013-02-20 01:25:00,23.1,16.7,29.76,WSW,253,11.0,19.6,76,0.00,-SN,OVC,0.00,0.0,WeatherDisplay:10.37,2013-02-20 06:25:00,
2013-02-20 01:30:00,23.4,18.7,29.78,WSW,258,7.0,17.0,82,0.00,,,0.00,0.00,VWS V14.01,2013-02-20 06:30:00,
2013-02-20 01:35:00,23.1,17.3,29.77,WSW,257,19.0,25.3,78,0.00,-SN,OVC,0.00,0.0,WeatherDisplay:10.37,2013-02-20 06:35:00,
2013-02-20 01:40:00,23.2,18.8,29.79,NW,306,9.0,9.0,83,0.00,,,0.00,0.00,VWS V14.01,2013-02-20 06:40:00,
2013-02-20 01:45:00,22.8,17.0,29.77,West,259,8.1,13.8,78,0.00,-SN,OVC,0.00,0.0,WeatherDisplay:10.37,2013-02-20 06:45:00,
2013-02-20 01:50:00,23.1,19.0,29.79,WNW,300,9.0,9.0,84,0.00,,,0.00,0.00,VWS V14.01,2013-02-20 06:50:00,
2013-02-20 01:55:00,23.1,19.3,29.79,WNW,286,6.0,8.0,85,0.00,,,0.00,0.00,VWS V14.01,2013-02-20 06:55:00,
2013-02-20 02:00:00,22.9,19.6,29.79,WNW,288,4.0,7.0,87,0.00,,,0.00,0.00,VWS V14.01,2013-02-20 07:00:00,
2013-02-20 02:05:00,22.2,17.8,29.78,West,266,11.0,19.6,83,0.00,-SN,OVC,0.00,0.0,WeatherDisplay:10.37,2013-02-20 07:05:00,
2013-02-20 02:10:00,22.5,19.5,29.79,WSW,246,8.0,8.0,88,0.00,,,0.00,0.00,VWS V14.01,2013-02-20 07:10:00,
2013-02-20 02:15:00,21.9,17.5,29.78,WSW,257,8.8,19.6,83,0.00,-SN,OVC,0.00,0.0,WeatherDisplay:10.37,2013-02-20 07:15:00,
2013-02-20 02:20:00,22.2,19.2,29.80,West,263,5.0,6.0,88,0.00,,,0.00,0.00,VWS V14.01,2013-02-20 07:20:00,
2013-02-20 02:25:00,21.9,17.2,29.78,West,263,8.4,13.8,82,0.00,-SN,OVC,0.00,0.0,WeatherDisplay:10.37,2013-02-20 07:25:00,
2013-02-20 02:30:00,22.3,18.8,29.79,West,279,8.0,14.0,86,0.00,,,0.00,0.00,VWS V14.01,2013-02-20 07:30:00,
2013-02-20 02:35:00,22.4,18.9,29.80,WNW,292,8.0,8.0,86,0.00,,,0.00,0.00,VWS V14.01,2013-02-20 07:35:00,
2013-02-20 02:40:00,22.0,17.1,29.78,WSW,253,10.3,24.2,81,0.00,-SN,OVC,0.00,0.0,WeatherDisplay:10.37,2013-02-20 07:40:00,
2013-02-20 02:45:00,22.2,18.4,29.80,WSW,257,6.0,10.0,85,0.00,,,0.00,0.00,VWS V14.01,2013-02-20 07:45:00,
2013-02-20 02:50:00,22.2,18.4,29.80,WSW,248,5.0,8.0,85,0.00,,,0.00,0.00,VWS V14.01,2013-02-20 07:50:00,
2013-02-20 02:55:00,22.2,18.1,29.80,WNW,292,9.0,10.0,84,0.00,,,0.00,0.00,VWS V14.01,2013-02-20 07:55:00,
2013-02-20 03:00:00,21.8,16.0,29.78,West,267,11.0,19.6,78,0.00,-SN,OVC,0.00,0.0,WeatherDisplay:10.37,2013-02-20 08:00:00,
2013-02-20 03:05:00,22.0,15.9,29.78,WSW,251,11.8,21.9,77,0.00,-SN,OVC,0.00,0.0,WeatherDisplay:10.37,2013-02-20 08:05:00,
2013-02-20 03:10:00,22.0,15.9,29.78,WSW,252,8.3,20.7,77,0.00,-SN,OVC,0.00,0.0,WeatherDisplay:10.37,2013-02-20 08:10:00,
2013-02-20 03:15:00,22.4,17.5,29.80,West,279,7.0,10.0,81,0.00,,,0.00,0.00,VWS V14.01,2013-02-20 08:15:00,
2013-02-20 03:20:00,22.0,15.9,29.78,West,264,11.7,21.0,77,0.00,-SN,OVC,0.00,0.0,WeatherDisplay:10.37,2013-02-20 08:20:00,
2013-02-20 03:25:00,22.3,17.6,29.80,West,269,5.0,12.0,82,0.00,,,0.00,0.00,VWS V14.01,2013-02-20 08:25:00,
2013-02-20 03:30:00,21.9,15.8,29.79,WSW,254,15.6,22.0,77,0.00,-SN,OVC,0.00,0.0,WeatherDisplay:10.37,2013-02-20 08:30:00,
2013-02-20 03:35:00,22.1,17.5,29.81,WNW,288,8.0,9.0,82,0.00,,,0.00,0.00,VWS V14.01,2013-02-20 08:35:00,
2013-02-20 03:40:00,21.7,15.6,29.79,WSW,256,8.9,18.4,77,0.00,-SN,OVC,0.00,0.0,WeatherDisplay:10.37,2013-02-20 08:40:00,
2013-02-20 03:45:00,22.0,17.4,29.81,WSW,250,6.0,7.0,82,0.00,,,0.00,0.00,VWS V14.01,2013-02-20 08:45:00,
2013-02-20 03:50:00,21.6,15.8,29.80,West,261,9.3,16.1,78,0.00,-SN,OVC,0.00,0.0,WeatherDisplay:10.37,2013-02-20 08:50:00,
2013-02-20 03:55:00,21.9,17.5,29.81,West,275,3.0,7.0,83,0.00,,,0.00,0.00,VWS V14.01,2013-02-20 08:55:00,
2013-02-20 04:00:00,21.8,17.4,29.81,West,271,5.0,7.0,83,0.00,,,0.00,0.00,VWS V14.01,2013-02-20 09:00:00,
2013-02-20 04:05:00,21.4,15.9,29.79,WNW,290,8.4,14.0,79,0.00,-SN,OVC,0.00,0.0,WeatherDisplay:10.37,2013-02-20 09:05:00,
2013-02-20 04:10:00,21.7,17.6,29.81,WSW,248,6.0,9.0,84,0.00,,,0.00,0.00,VWS V14.01,2013-02-20 09:10:00,
2013-02-20 04:15:00,21.6,17.5,29.81,West,271,7.0,8.0,84,0.00,,,0.00,0.00,VWS V14.01,2013-02-20 09:15:00,
2013-02-20 04:20:00,21.2,16.0,29.80,West,265,8.7,18.4,80,0.00,-SN,OVC,0.00,0.0,WeatherDisplay:10.37,2013-02-20 09:20:00,
2013-02-20 04:25:00,21.5,17.7,29.82,WNW,298,8.0,8.0,85,0.00,,,0.00,0.00,VWS V14.01,2013-02-20 09:25:00,
2013-02-20 04:30:00,21.3,17.8,29.82,West,279,8.0,8.0,86,0.00,,,0.00,0.00,VWS V14.01,2013-02-20 09:30:00,
2013-02-20 04:35:00,20.7,16.4,29.81,WSW,251,10.3,19.0,83,0.00,-SN,OVC,0.00,0.0,WeatherDisplay:10.37,2013-02-20 09:35:00,
2013-02-20 04:40:00,20.6,16.5,29.81,WNW,283,5.5,11.0,84,0.00,-SN,OVC,0.00,0.0,WeatherDisplay:10.37,2013-02-20 09:40:00,
2013-02-20 04:45:00,20.8,17.8,29.83,West,279,2.0,7.0,88,0.00,,,0.00,0.00,VWS V14.01,2013-02-20 09:45:00,
2013-02-20 04:50:00,20.4,17.4,29.83,West,262,13.0,13.0,88,0.00,,,0.00,0.00,VWS V14.01,2013-02-20 09:50:00,
2013-02-20 04:55:00,20.2,17.2,29.83,West,277,5.0,11.0,88,0.00,,,0.00,0.00,VWS V14.01,2013-02-20 09:55:00,
2013-02-20 05:00:00,19.5,15.5,29.81,WNW,286,7.6,18.4,84,0.00,-SN,OVC,0.00,0.0,WeatherDisplay:10.37,2013-02-20 10:00:00,
2013-02-20 05:05:00,19.9,16.9,29.83,WNW,286,9.0,9.0,88,0.00,,,0.00,0.00,VWS V14.01,2013-02-20 10:05:00,
2013-02-20 05:10:00,19.7,16.7,29.83,West,277,5.0,5.0,88,0.00,,,0.00,0.00,VWS V14.01,2013-02-20 10:10:00,
2013-02-20 05:15:00,19.7,17.0,29.83,NW,310,10.0,10.0,89,0.00,,,0.00,0.00,VWS V14.01,2013-02-20 10:15:00,
2013-02-20 05:20:00,19.6,16.9,29.83,WNW,288,6.0,6.0,89,0.00,,,0.00,0.00,VWS V14.01,2013-02-20 10:20:00,
2013-02-20 05:25:00,19.0,15.2,29.82,WNW,286,4.2,13.8,85,0.00,-SN,OVC,0.00,0.0,WeatherDisplay:10.37,2013-02-20 10:25:00,
2013-02-20 05:29:00,19.5,17.0,29.83,WNW,290,4.0,4.0,90,0.00,,,0.00,0.00,VWS V14.01,2013-02-20 10:29:00,
2013-02-20 05:34:00,19.4,17.0,29.84,WNW,288,7.0,7.0,90,0.00,,,0.00,0.00,VWS V14.01,2013-02-20 10:34:00,
2013-02-20 05:39:00,18.8,15.3,29.82,NNW,334,7.1,13.0,86,0.00,-SN,OVC,0.00,0.0,WeatherDisplay:10.37,2013-02-20 10:39:00,
2013-02-20 05:44:00,19.2,16.8,29.84,West,281,7.0,13.0,90,0.00,,,0.00,0.00,VWS V14.01,2013-02-20 10:44:00,
2013-02-20 05:49:00,19.1,16.7,29.84,West,280,4.0,6.0,90,0.00,,,0.00,0.00,VWS V14.01,2013-02-20 10:49:00,
2013-02-20 05:54:00,19.1,16.7,29.84,WSW,244,3.0,8.0,90,0.00,,,0.00,0.00,VWS V14.01,2013-02-20 10:54:00,
2013-02-20 05:59:00,19.2,16.8,29.84,WNW,298,8.0,11.0,90,0.00,,,0.00,0.00,VWS V14.01,2013-02-20 10:59:00,
2013-02-20 06:04:00,19.2,17.0,29.84,WNW,296,4.0,6.0,91,0.00,,,0.00,0.00,VWS V14.01,2013-02-20 11:04:00,
2013-02-20 06:09:00,18.7,15.5,29.83,West,267,8.4,14.0,87,0.00,-SN,OVC,0.00,0.0,WeatherDisplay:10.37,2013-02-20 11:09:00,
2013-02-20 06:14:00,19.3,17.1,29.84,WNW,283,7.0,8.0,91,0.00,,,0.00,0.00,VWS V14.01,2013-02-20 11:14:00,
2013-02-20 06:19:00,19.4,17.2,29.84,West,277,6.0,9.0,91,0.00,,,0.00,0.00,VWS V14.01,2013-02-20 11:19:00,
2013-02-20 06:24:00,19.5,17.3,29.84,West,279,7.0,7.0,91,0.00,,,0.00,0.00,VWS V14.01,2013-02-20 11:24:00,
2013-02-20 06:29:00,19.6,17.4,29.84,West,280,9.0,15.0,91,0.00,,,0.00,0.00,VWS V14.01,2013-02-20 11:29:00,
2013-02-20 06:34:00,19.1,15.9,29.83,WNW,298,10.7,23.0,87,0.00,-SN,OVC,0.00,0.0,WeatherDisplay:10.37,2013-02-20 11:34:00,
2013-02-20 06:39:00,19.7,17.5,29.85,WNW,283,6.0,9.0,91,0.00,,,0.00,0.00,VWS V14.01,2013-02-20 11:39:00,
2013-02-20 06:44:00,19.5,17.3,29.85,WSW,254,9.0,10.0,91,0.00,,,0.00,0.00,VWS V14.01,2013-02-20 11:44:00,
2013-02-20 06:49:00,19.0,15.5,29.84,WSW,256,7.6,16.1,86,0.00,-SN,OVC,0.00,0.0,WeatherDisplay:10.37,2013-02-20 11:49:00,
2013-02-20 06:54:00,19.5,17.0,29.85,West,267,5.0,8.0,90,0.00,,,0.00,0.00,VWS V14.01,2013-02-20 11:54:00,
2013-02-20 06:59:00,19.5,16.8,29.85,WNW,298,8.0,8.0,89,0.00,,,0.00,0.00,VWS V14.01,2013-02-20 11:59:00,
2013-02-20 07:04:00,18.9,15.1,29.84,West,265,9.7,17.3,85,0.00,-SN,OVC,0.00,0.0,WeatherDisplay:10.37,2013-02-20 12:04:00,
2013-02-20 07:09:00,19.4,16.2,29.86,WSW,253,6.0,11.0,87,0.00,,,0.00,0.00,VWS V14.01,2013-02-20 12:09:00,
2013-02-20 07:14:00,19.2,15.7,29.86,West,262,5.0,5.0,86,0.00,,,0.00,5.00,VWS V14.01,2013-02-20 12:14:00,
2013-02-20 07:19:00,18.5,14.2,29.85,West,268,8.7,16.0,83,0.00,-SN,OVC,0.00,9.0,WeatherDisplay:10.37,2013-02-20 12:19:00,
2013-02-20 07:24:00,19.1,15.1,29.86,WSW,250,8.0,8.0,84,0.00,,,0.00,19.00,VWS V14.01,2013-02-20 12:24:00,
2013-02-20 07:29:00,18.4,13.8,29.85,WSW,242,11.1,17.3,82,0.00,-SN,OVC,0.00,25.0,WeatherDisplay:10.37,2013-02-20 12:29:00,
2013-02-20 07:34:00,18.2,13.3,29.85,West,265,13.5,20.0,81,0.00,-SN,OVC,0.00,25.0,WeatherDisplay:10.37,2013-02-20 12:34:00,
2013-02-20 07:39:00,19.0,14.4,29.87,WNW,284,4.0,4.0,82,0.00,,,0.00,33.00,VWS V14.01,2013-02-20 12:39:00,
2013-02-20 07:44:00,19.2,14.3,29.87,WNW,302,13.0,13.0,81,0.00,,,0.00,42.00,VWS V14.01,2013-02-20 12:44:00,
2013-02-20 07:49:00,19.2,14.3,29.87,WSW,258,4.0,7.0,81,0.00,,,0.00,37.00,VWS V14.01,2013-02-20 12:49:00,
2013-02-20 07:54:00,18.4,13.5,29.86,WSW,238,8.2,16.0,81,0.00,-SN,OVC,0.00,46.0,WeatherDisplay:10.37,2013-02-20 12:54:00,
2013-02-20 07:59:00,19.3,14.4,29.88,West,259,5.0,7.0,81,0.00,,,0.00,46.00,VWS V14.01,2013-02-20 12:59:00,
2013-02-20 08:04:00,19.3,14.1,29.88,WNW,290,6.0,7.0,80,0.00,,,0.00,47.00,VWS V14.01,2013-02-20 13:04:00,
2013-02-20 08:09:00,19.2,13.8,29.88,WNW,294,6.0,7.0,79,0.00,,,0.00,53.00,VWS V14.01,2013-02-20 13:09:00,
2013-02-20 08:14:00,19.3,13.9,29.88,West,281,6.0,6.0,79,0.00,,,0.00,60.00,VWS V14.01,2013-02-20 13:14:00,
2013-02-20 08:19:00,19.4,13.7,29.88,West,267,15.0,15.0,78,0.00,,,0.00,69.00,VWS V14.01,2013-02-20 13:19:00,
2013-02-20 08:24:00,19.5,13.5,29.89,West,270,4.0,6.0,77,0.00,,,0.00,81.00,VWS V14.01,2013-02-20 13:24:00,
2013-02-20 08:29:00,18.6,12.6,29.87,West,259,11.3,21.0,77,0.00,-SN,OVC,0.00,109.0,WeatherDisplay:10.37,2013-02-20 13:29:00,
2013-02-20 08:34:00,18.8,12.5,29.88,WNW,300,8.9,19.6,76,0.00,-SN,OVC,0.00,130.0,WeatherDisplay:10.37,2013-02-20 13:34:00,
2013-02-20 08:39:00,19.9,12.7,29.89,WSW,253,6.0,10.0,73,0.00,,,0.00,118.00,VWS V14.01,2013-02-20 13:39:00,
2013-02-20 08:44:00,18.8,12.2,29.88,WNW,286,8.6,16.1,75,0.00,-SN,OVC,0.00,132.0,WeatherDisplay:10.37,2013-02-20 13:44:00,
2013-02-20 08:49:00,19.8,12.9,29.89,West,266,7.0,10.0,74,0.00,,,0.00,139.00,VWS V14.01,2013-02-20 13:49:00,
2013-02-20 08:54:00,19.9,12.7,29.89,West,279,5.0,8.0,73,0.00,,,0.00,158.00,VWS V14.01,2013-02-20 13:54:00,
2013-02-20 08:59:00,20.0,12.1,29.89,WNW,286,13.0,13.0,71,0.00,,,0.00,179.00,VWS V14.01,2013-02-20 13:59:00,
2013-02-20 09:04:00,19.0,11.5,29.88,West,261,14.7,19.6,72,0.00,-SN,OVC,0.00,179.0,WeatherDisplay:10.37,2013-02-20 14:04:00,
2013-02-20 09:09:00,20.2,12.0,29.89,West,271,10.0,12.0,70,0.00,,,0.00,227.00,VWS V14.01,2013-02-20 14:09:00,
2013-02-20 09:14:00,20.4,11.9,29.89,WNW,290,11.0,12.0,69,0.00,,,0.00,220.00,VWS V14.01,2013-02-20 14:14:00,
2013-02-20 09:19:00,19.4,11.2,29.88,West,265,7.6,15.0,70,0.00,-SN,OVC,0.00,195.0,WeatherDisplay:10.37,2013-02-20 14:19:00,
2013-02-20 09:24:00,20.5,12.3,29.90,West,264,4.0,6.0,70,0.00,,,0.00,267.00,VWS V14.01,2013-02-20 14:24:00,
2013-02-20 09:29:00,20.9,13.0,29.90,West,278,6.0,7.0,71,0.00,,,0.00,371.00,VWS V14.01,2013-02-20 14:29:00,
2013-02-20 09:34:00,20.0,11.5,29.88,WSW,255,9.9,20.0,69,0.00,OVC,,0.00,413.0,WeatherDisplay:10.37,2013-02-20 14:34:00,
2013-02-20 09:39:00,21.7,13.4,29.89,WNW,292,12.0,17.0,70,0.00,,OVC050,0.00,501.00,VWS V14.01,2013-02-20 14:39:00,
2013-02-20 09:44:00,21.8,13.5,29.90,West,270,7.0,10.0,70,0.00,,OVC050,0.00,364.00,VWS V14.01,2013-02-20 14:44:00,
2013-02-20 09:49:00,21.5,13.2,29.90,WNW,286,6.0,13.0,70,0.00,,OVC050,0.00,243.00,VWS V14.01,2013-02-20 14:49:00,
2013-02-20 09:54:00,20.6,12.4,29.89,West,269,13.7,29.9,70,0.00,OVC,,0.00,299.0,WeatherDisplay:10.37,2013-02-20 14:54:00,
2013-02-20 09:59:00,21.4,13.1,29.90,West,271,11.0,13.0,70,0.00,,OVC050,0.00,295.00,VWS V14.01,2013-02-20 14:59:00,
2013-02-20 10:04:00,20.5,11.3,29.89,WNW,292,9.9,21.0,67,0.00,OVC,,0.00,232.0,WeatherDisplay:10.37,2013-02-20 15:04:00,
2013-02-20 10:09:00,21.0,12.8,29.91,West,267,8.0,11.0,70,0.00,,OVC050,0.00,357.00,VWS V14.01,2013-02-20 15:09:00,
2013-02-20 10:14:00,20.9,12.7,29.91,West,281,6.0,7.0,70,0.00,,OVC050,0.00,178.00,VWS V14.01,2013-02-20 15:14:00,
2013-02-20 10:19:00,20.8,12.6,29.91,WSW,254,8.0,13.0,70,0.00,,OVC050,0.00,258.00,VWS V14.01,2013-02-20 15:19:00,
2013-02-20 10:24:00,20.8,12.6,29.91,WNW,282,9.0,16.0,70,0.00,,OVC050,0.00,209.00,VWS V14.01,2013-02-20 15:24:00,
2013-02-20 10:29:00,21.1,12.9,29.91,WNW,287,8.0,10.0,70,0.00,,OVC050,0.00,207.00,VWS V14.01,2013-02-20 15:29:00,
2013-02-20 10:34:00,21.6,13.0,29.91,West,264,7.0,15.0,69,0.00,,,0.00,290.00,VWS V14.01,2013-02-20 15:34:00,
2013-02-20 10:39:00,21.6,13.0,29.91,WSW,250,8.0,9.0,69,0.00,,,0.00,332.00,VWS V14.01,2013-02-20 15:39:00,
2013-02-20 10:44:00,21.8,12.5,29.92,West,271,12.0,13.0,67,0.00,,,0.00,269.00,VWS V14.01,2013-02-20 15:44:00,
2013-02-20 10:49:00,20.8,10.5,29.90,West,259,13.1,17.3,64,0.00,-SN,OVC,0.00,301.0,WeatherDisplay:10.37,2013-02-20 15:49:00,
2013-02-20 10:54:00,21.0,12.4,29.92,WNW,292,7.0,9.0,69,0.00,,,0.00,250.00,VWS V14.01,2013-02-20 15:54:00,
2013-02-20 10:59:00,20.4,10.8,29.91,WNW,282,11.4,20.0,66,0.00,-SN,OVC,0.00,269.0,WeatherDisplay:10.37,2013-02-20 15:59:00,
2013-02-20 11:04:00,20.9,13.0,29.92,West,269,6.0,11.0,71,0.00,,,0.00,281.00,VWS V14.01,2013-02-20 16:04:00,
2013-02-20 11:09:00,20.2,11.0,29.91,WSW,257,10.2,19.6,67,0.00,-SN,OVC,0.00,292.0,WeatherDisplay:10.37,2013-02-20 16:09:00,
2013-02-20 11:14:00,21.1,12.9,29.93,WSW,249,6.0,10.0,70,0.00,,,0.00,320.00,VWS V14.01,2013-02-20 16:14:00,
2013-02-20 11:19:00,21.2,13.0,29.93,WNW,302,7.0,9.0,70,0.00,,,0.00,257.00,VWS V14.01,2013-02-20 16:19:00,
2013-02-20 11:24:00,22.3,13.7,29.93,West,281,10.0,10.0,69,0.00,,,0.00,650.00,VWS V14.01,2013-02-20 16:24:00,
2013-02-20 11:29:00,22.3,13.0,29.93,West,281,8.0,13.0,67,0.00,,,0.00,388.00,VWS V14.01,2013-02-20 16:29:00,
2013-02-20 11:34:00,21.9,12.6,29.93,WNW,288,11.0,13.0,67,0.00,,,0.00,322.00,VWS V14.01,2013-02-20 16:34:00,
2013-02-20 11:39:00,21.0,10.7,29.92,WSW,258,13.4,25.3,64,0.00,-SN,OVC,0.00,316.0,WeatherDisplay:10.37,2013-02-20 16:39:00,
2013-02-20 11:44:00,21.8,13.2,29.94,West,267,7.0,12.0,69,0.00,,,0.00,299.00,VWS V14.01,2013-02-20 16:44:00,
2013-02-20 11:49:00,21.5,12.3,29.94,West,263,10.0,10.0,67,0.00,,,0.00,309.00,VWS V14.01,2013-02-20 16:49:00,
2013-02-20 11:54:00,20.7,10.1,29.93,WNW,283,10.8,16.1,63,0.00,-SN,OVC,0.00,346.0,WeatherDisplay:10.37,2013-02-20 16:54:00,
2013-02-20 11:59:00,22.1,12.5,29.94,WSW,250,5.0,12.0,66,0.00,,,0.00,731.00,VWS V14.01,2013-02-20 16:59:00,
2013-02-20 12:04:00,21.8,10.4,29.93,WSW,248,9.6,20.7,61,0.00,-SN,OVC,0.00,475.0,WeatherDisplay:10.37,2013-02-20 17:04:00,
2013-02-20 12:09:00,21.9,12.3,29.94,West,275,10.0,12.0,66,0.00,,,0.00,367.00,VWS V14.01,2013-02-20 17:09:00,
2013-02-20 12:14:00,22.0,13.7,29.94,WSW,254,11.0,12.0,70,0.00,,,0.00,399.00,VWS V14.01,2013-02-20 17:14:00,
2013-02-20 12:19:00,23.0,14.4,29.94,WSW,253,14.0,14.0,69,0.00,,,0.00,905.00,VWS V14.01,2013-02-20 17:19:00,
2013-02-20 12:24:00,21.6,10.9,29.93,WSW,258,10.7,23.0,63,0.00,-SN,OVC,0.00,445.0,WeatherDisplay:10.37,2013-02-20 17:24:00,
2013-02-20 12:28:00,22.6,13.0,29.94,SW,232,5.0,7.0,66,0.00,,,0.00,301.00,VWS V14.01,2013-02-20 17:28:00,
2013-02-20 12:33:00,22.2,11.9,29.94,West,265,4.0,9.0,64,0.00,,,0.00,246.00,VWS V14.01,2013-02-20 17:33:00,
2013-02-20 12:38:00,21.3,9.9,29.93,WSW,257,9.8,19.0,61,0.00,-SN,OVC,0.00,279.0,WeatherDisplay:10.37,2013-02-20 17:38:00,
2013-02-20 12:43:00,22.1,12.1,29.94,West,271,7.0,14.0,65,0.00,,,0.00,262.00,VWS V14.01,2013-02-20 17:43:00,
2013-02-20 12:48:00,21.7,12.1,29.95,West,272,9.0,9.0,66,0.00,,,0.00,274.00,VWS V14.01,2013-02-20 17:48:00,
2013-02-20 12:53:00,21.0,10.0,29.93,West,262,9.2,19.6,62,0.00,-SN,OVC,0.00,304.0,WeatherDisplay:10.37,2013-02-20 17:53:00,
2013-02-20 12:58:00,21.1,10.1,29.93,WNW,282,11.4,21.0,62,0.00,-SN,OVC,0.00,243.0,WeatherDisplay:10.37,2013-02-20 17:58:00,
2013-02-20 13:03:00,21.0,10.0,29.93,WSW,257,16.2,24.2,62,0.00,-SN,OVC,0.00,253.0,WeatherDisplay:10.37,2013-02-20 18:03:00,
2013-02-20 13:08:00,20.7,10.4,29.94,West,264,12.8,22.0,64,0.00,-SN,OVC,0.00,144.0,WeatherDisplay:10.37,2013-02-20 18:08:00,
2013-02-20 13:13:00,20.6,11.7,29.94,SW,232,15.6,23.0,68,0.00,-SN,OVC,0.00,169.0,WeatherDisplay:10.37,2013-02-20 18:13:00,
2013-02-20 13:18:00,20.6,11.7,29.94,West,273,12.0,20.0,68,0.00,-SN,OVC,0.00,232.0,WeatherDisplay:10.37,2013-02-20 18:18:00,
2013-02-20 13:23:00,20.7,11.8,29.94,West,267,7.1,20.7,68,0.00,-SN,OVC,0.00,257.0,WeatherDisplay:10.37,2013-02-20 18:23:00,
2013-02-20 13:28:00,20.9,11.3,29.94,West,271,11.9,21.9,66,0.00,-SN,OVC,0.00,241.0,WeatherDisplay:10.37,2013-02-20 18:28:00,
2013-02-20 13:34:00,20.9,11.7,29.94,West,269,15.1,26.5,67,0.00,-SN,OVC,0.00,236.0,WeatherDisplay:10.37,2013-02-20 18:34:00,
2013-02-20 13:39:00,20.8,11.9,29.95,WSW,257,8.8,15.0,68,0.00,-SN,OVC,0.00,243.0,WeatherDisplay:10.37,2013-02-20 18:39:00,
2013-02-20 13:44:00,20.9,12.0,29.95,WNW,286,11.1,19.6,68,0.00,-SN,OVC,0.00,244.0,WeatherDisplay:10.37,2013-02-20 18:44:00,
2013-02-20 13:49:00,21.0,12.1,29.95,West,276,15.0,26.5,68,0.00,-SN,OVC,0.00,237.0,WeatherDisplay:10.37,2013-02-20 18:49:00,
2013-02-20 13:54:00,20.9,11.7,29.95,West,275,7.7,18.4,67,0.00,-SN,OVC,0.00,207.0,WeatherDisplay:10.37,2013-02-20 18:54:00,
2013-02-20 13:59:00,21.2,12.3,29.96,WSW,255,14.5,22.0,68,0.00,-SN,OVC,0.00,206.0,WeatherDisplay:10.37,2013-02-20 18:59:00,
2013-02-20 14:04:00,20.9,12.0,29.96,WSW,248,11.0,15.0,68,0.00,-SN,OVC,0.00,185.0,WeatherDisplay:10.37,2013-02-20 19:04:00,
2013-02-20 14:09:00,20.9,12.0,29.96,West,259,14.5,22.0,68,0.00,-SN,OVC,0.00,202.0,WeatherDisplay:10.37,2013-02-20 19:09:00,
2013-02-20 14:14:00,20.9,11.7,29.96,WNW,285,10.7,25.3,67,0.00,-SN,OVC,0.00,207.0,WeatherDisplay:10.37,2013-02-20 19:14:00,
2013-02-20 14:19:00,20.9,12.0,29.96,WNW,290,15.1,25.3,68,0.00,-SN,OVC,0.00,218.0,WeatherDisplay:10.37,2013-02-20 19:19:00,
2013-02-20 14:24:00,20.9,12.0,29.96,West,268,8.6,21.9,68,0.00,-SN,OVC,0.00,199.0,WeatherDisplay:10.37,2013-02-20 19:24:00,
2013-02-20 14:29:00,20.9,12.0,29.97,West,265,10.7,24.0,68,0.00,-SN,OVC,0.00,195.0,WeatherDisplay:10.37,2013-02-20 19:29:00,
2013-02-20 14:34:00,21.1,11.8,29.97,WNW,287,6.6,13.8,67,0.00,-SN,OVC,0.00,190.0,WeatherDisplay:10.37,2013-02-20 19:34:00,
2013-02-20 14:39:00,21.1,11.8,29.97,WNW,285,10.4,19.6,67,0.00,-SN,OVC,0.00,185.0,WeatherDisplay:10.37,2013-02-20 19:39:00,
2013-02-20 14:44:00,21.1,11.8,29.97,WNW,282,13.4,23.0,67,0.00,-SN,OVC,0.00,190.0,WeatherDisplay:10.37,2013-02-20 19:44:00,
2013-02-20 14:49:00,21.0,11.8,29.97,West,261,10.8,19.6,67,0.00,-SN,OVC,0.00,172.0,WeatherDisplay:10.37,2013-02-20 19:49:00,
2013-02-20 14:54:00,21.0,11.8,29.97,WSW,256,17.6,26.5,67,0.00,-SN,OVC,0.00,151.0,WeatherDisplay:10.37,2013-02-20 19:54:00,
2013-02-20 14:59:00,20.9,11.7,29.98,WNW,288,12.6,26.5,67,0.00,-SN,OVC,0.00,178.0,WeatherDisplay:10.37,2013-02-20 19:59:00,
2013-02-20 15:04:00,20.9,11.7,29.98,West,265,14.3,24.0,67,0.00,-SN,OVC,0.00,181.0,WeatherDisplay:10.37,2013-02-20 20:04:00,
2013-02-20 15:09:00,21.0,11.8,29.98,WSW,255,16.0,24.0,67,0.00,-SN,OVC,0.00,179.0,WeatherDisplay:10.37,2013-02-20 20:09:00,
2013-02-20 15:14:00,21.1,11.8,29.98,WSW,255,10.7,15.0,67,0.00,-SN,OVC,0.00,158.0,WeatherDisplay:10.37,2013-02-20 20:14:00,
2013-02-20 15:19:00,21.1,11.8,29.98,WSW,256,13.9,20.0,67,0.00,-SN,OVC,0.00,163.0,WeatherDisplay:10.37,2013-02-20 20:19:00,
2013-02-20 15:24:00,21.2,11.9,29.99,WSW,255,10.0,16.1,67,0.00,-SN,OVC,0.00,162.0,WeatherDisplay:10.37,2013-02-20 20:24:00,
2013-02-20 15:29:00,21.3,12.0,29.99,West,266,8.4,23.0,67,0.00,-SN,OVC,0.00,163.0,WeatherDisplay:10.37,2013-02-20 20:29:00,
2013-02-20 15:34:00,21.4,12.1,29.99,WSW,248,11.0,18.4,67,0.00,-SN,OVC,0.00,176.0,WeatherDisplay:10.37,2013-02-20 20:34:00,
2013-02-20 15:39:00,21.4,12.1,29.99,West,260,12.3,21.9,67,0.00,-SN,OVC,0.00,142.0,WeatherDisplay:10.37,2013-02-20 20:39:00,
2013-02-20 15:44:00,21.3,12.0,29.99,WSW,246,13.8,23.0,67,0.00,-SN,OVC,0.00,123.0,WeatherDisplay:10.37,2013-02-20 20:44:00,
2013-02-20 15:49:00,21.3,12.0,30.00,WSW,255,12.8,19.6,67,0.00,-SN,OVC,0.00,127.0,WeatherDisplay:10.37,2013-02-20 20:49:00,
2013-02-20 15:54:00,21.3,12.4,30.00,West,259,9.9,17.0,68,0.00,-SN,OVC,0.00,120.0,WeatherDisplay:10.37,2013-02-20 20:54:00,
2013-02-20 15:59:00,21.3,12.0,30.00,NW,315,11.9,28.0,67,0.00,-SN,OVC,0.00,97.0,WeatherDisplay:10.37,2013-02-20 20:59:00,
2013-02-20 16:04:00,21.2,12.6,30.00,West,266,11.9,23.0,69,0.00,-SN,OVC,0.00,83.0,WeatherDisplay:10.37,2013-02-20 21:04:00,
2013-02-20 16:09:00,21.1,12.5,30.00,WSW,248,10.4,19.6,69,0.00,-SN,OVC,0.00,74.0,WeatherDisplay:10.37,2013-02-20 21:09:00,
2013-02-20 16:14:00,20.9,13.0,30.00,WSW,253,12.9,23.0,71,0.00,-SN,OVC,0.00,60.0,WeatherDisplay:10.37,2013-02-20 21:14:00,
2013-02-20 16:19:00,20.9,13.0,30.00,WSW,251,15.7,24.2,71,0.00,-SN,OVC,0.00,63.0,WeatherDisplay:10.37,2013-02-20 21:19:00,
2013-02-20 16:24:00,20.8,12.9,30.01,WSW,245,15.8,24.2,71,0.00,-SN,OVC,0.00,54.0,WeatherDisplay:10.37,2013-02-20 21:24:00,
2013-02-20 16:29:00,20.7,12.8,30.01,WSW,252,9.6,17.0,71,0.00,-SN,OVC,0.00,46.0,WeatherDisplay:10.37,2013-02-20 21:29:00,
2013-02-20 16:34:00,20.7,13.1,30.01,WSW,258,11.5,18.4,72,0.00,-SN,OVC,0.00,44.0,WeatherDisplay:10.37,2013-02-20 21:34:00,
2013-02-20 16:39:00,20.7,12.8,30.02,WSW,253,9.6,17.3,71,0.00,-SN,OVC,0.00,40.0,WeatherDisplay:10.37,2013-02-20 21:39:00,
2013-02-20 16:44:00,20.7,12.5,30.02,WSW,247,10.6,21.0,70,0.00,-SN,OVC,0.00,42.0,WeatherDisplay:10.37,2013-02-20 21:44:00,
2013-02-20 16:49:00,20.6,12.4,30.02,WNW,284,9.1,19.6,70,0.00,-SN,OVC,0.00,32.0,WeatherDisplay:10.37,2013-02-20 21:49:00,
2013-02-20 16:54:00,20.6,12.0,30.02,WSW,252,11.2,19.6,69,0.00,-SN,OVC,0.00,35.0,WeatherDisplay:10.37,2013-02-20 21:54:00,
2013-02-20 16:59:00,20.6,11.7,30.03,WSW,256,12.8,19.6,68,0.00,-SN,OVC,0.00,30.0,WeatherDisplay:10.37,2013-02-20 21:59:00,
2013-02-20 17:04:00,20.6,11.7,30.03,West,263,11.1,19.6,68,0.00,-SN,OVC,0.00,25.0,WeatherDisplay:10.37,2013-02-20 22:04:00,
2013-02-20 17:09:00,20.5,11.6,30.04,West,259,8.0,23.0,68,0.00,-SN,OVC,0.00,19.0,WeatherDisplay:10.37,2013-02-20 22:09:00,
2013-02-20 17:14:00,20.5,11.3,30.04,West,260,8.2,15.0,67,0.00,-SN,OVC,0.00,16.0,WeatherDisplay:10.37,2013-02-20 22:14:00,
2013-02-20 17:19:00,20.5,11.3,30.04,West,259,10.3,17.3,67,0.00,-SN,OVC,0.00,12.0,WeatherDisplay:10.37,2013-02-20 22:19:00,
2013-02-20 17:24:00,20.5,11.6,30.05,West,271,8.2,18.4,68,0.00,-SN,OVC,0.00,11.0,WeatherDisplay:10.37,2013-02-20 22:24:00,
2013-02-20 17:29:00,20.4,11.2,30.05,NW,305,7.2,15.0,67,0.00,-SN,OVC,0.00,9.0,WeatherDisplay:10.37,2013-02-20 22:29:00,
2013-02-20 17:34:00,20.4,11.2,30.05,WSW,253,8.1,15.0,67,0.00,-SN,OVC,0.00,9.0,WeatherDisplay:10.37,2013-02-20 22:34:00,
2013-02-20 17:39:00,20.4,11.2,30.05,WSW,254,12.4,24.2,67,0.00,-SN,OVC,0.00,7.0,WeatherDisplay:10.37,2013-02-20 22:39:00,
2013-02-20 17:44:00,20.3,11.1,30.05,WNW,298,11.7,23.0,67,0.00,-SN,OVC,0.00,5.0,WeatherDisplay:10.37,2013-02-20 22:44:00,
2013-02-20 17:49:00,20.2,11.0,30.05,West,280,10.1,21.9,67,0.00,-SN,OVC,0.00,0.0,WeatherDisplay:10.37,2013-02-20 22:49:00,
2013-02-20 17:54:00,20.1,10.9,30.05,WSW,253,8.5,25.3,67,0.00,-SN,OVC,0.00,0.0,WeatherDisplay:10.37,2013-02-20 22:54:00,
2013-02-20 17:59:00,20.1,10.9,30.06,West,259,11.4,20.7,67,0.00,-SN,OVC,0.00,0.0,WeatherDisplay:10.37,2013-02-20 22:59:00,
2013-02-20 18:04:00,20.0,10.8,30.06,WNW,298,14.4,23.0,67,0.00,-SN,OVC,0.00,0.0,WeatherDisplay:10.37,2013-02-20 23:04:00,
2013-02-20 18:09:00,20.0,11.1,30.06,West,260,9.0,16.1,68,0.00,-SN,OVC,0.00,0.0,WeatherDisplay:10.37,2013-02-20 23:09:00,
2013-02-20 18:14:00,20.0,11.5,30.06,WSW,250,9.2,18.0,69,0.00,-SN,OVC,0.00,0.0,WeatherDisplay:10.37,2013-02-20 23:14:00,
2013-02-20 18:19:00,20.0,11.5,30.06,West,261,10.1,15.0,69,0.00,-SN,OVC,0.00,0.0,WeatherDisplay:10.37,2013-02-20 23:19:00,
2013-02-20 18:24:00,19.9,11.4,30.06,West,267,13.5,21.0,69,0.00,-SN,OVC,0.00,0.0,WeatherDisplay:10.37,2013-02-20 23:24:00,
2013-02-20 18:29:00,19.8,11.3,30.07,West,261,5.2,17.3,69,0.00,-SN,OVC,0.00,0.0,WeatherDisplay:10.37,2013-02-20 23:29:00,
2013-02-20 18:34:00,19.8,11.3,30.07,West,280,8.0,17.3,69,0.00,-SN,OVC,0.00,0.0,WeatherDisplay:10.37,2013-02-20 23:34:00,
2013-02-20 18:39:00,19.7,10.8,30.07,West,275,11.7,20.7,68,0.00,-SN,OVC,0.00,0.0,WeatherDisplay:10.37,2013-02-20 23:39:00,
2013-02-20 18:44:00,19.7,10.5,30.08,West,277,14.8,26.5,67,0.00,-SN,OVC,0.00,0.0,WeatherDisplay:10.37,2013-02-20 23:44:00,
2013-02-20 18:49:00,19.7,10.5,30.08,WNW,288,11.9,20.0,67,0.00,-SN,OVC,0.00,0.0,WeatherDisplay:10.37,2013-02-20 23:49:00,
2013-02-20 18:55:00,19.6,10.4,30.08,West,262,10.1,28.0,67,0.00,-SN,OVC,0.00,0.0,WeatherDisplay:10.37,2013-02-20 23:55:00,
2013-02-20 19:00:00,19.6,10.1,30.08,WSW,255,10.4,19.6,66,0.00,-SN,OVC,0.00,0.0,WeatherDisplay:10.37,2013-02-21 00:00:00,
2013-02-20 19:05:00,19.5,10.3,30.08,West,266,7.5,15.0,67,0.00,-SN,OVC,0.00,0.0,WeatherDisplay:10.37,2013-02-21 00:05:00,
2013-02-20 19:10:00,19.5,10.6,30.09,West,263,12.1,21.0,68,0.00,-SN,OVC,0.00,0.0,WeatherDisplay:10.37,2013-02-21 00:10:00,
2013-02-20 19:15:00,19.4,10.2,30.08,WSW,256,10.8,24.2,67,0.00,-SN,OVC,0.00,0.0,WeatherDisplay:10.37,2013-02-21 00:15:00,
2013-02-20 19:20:00,19.4,10.6,30.09,WNW,285,13.7,22.0,68,0.00,-SN,OVC,0.00,0.0,WeatherDisplay:10.37,2013-02-21 00:20:00,
2013-02-20 19:25:00,19.3,10.5,30.09,West,273,11.0,19.6,68,0.00,-SN,OVC,0.00,0.0,WeatherDisplay:10.37,2013-02-21 00:25:00,
2013-02-20 19:30:00,19.2,10.4,30.09,West,259,14.3,21.0,68,0.00,-SN,OVC,0.00,0.0,WeatherDisplay:10.37,2013-02-21 00:30:00,
2013-02-20 19:35:00,19.2,10.4,30.09,West,261,11.2,26.5,68,0.00,-SN,OVC,0.00,0.0,WeatherDisplay:10.37,2013-02-21 00:35:00,
2013-02-20 19:40:00,19.1,10.3,30.09,WSW,250,8.9,19.6,68,0.00,-SN,OVC,0.00,0.0,WeatherDisplay:10.37,2013-02-21 00:40:00,
2013-02-20 19:45:00,19.0,10.2,30.09,WSW,255,15.0,22.0,68,0.00,-SN,OVC,0.00,0.0,WeatherDisplay:10.37,2013-02-21 00:45:00,
2013-02-20 19:50:00,18.9,10.1,30.09,WSW,258,7.6,16.1,68,0.00,-SN,OVC,0.00,0.0,WeatherDisplay:10.37,2013-02-21 00:50:00,
2013-02-20 19:55:00,18.9,10.1,30.09,West,275,7.5,19.6,68,0.00,-SN,OVC,0.00,0.0,WeatherDisplay:10.37,2013-02-21 00:55:00,
2013-02-20 20:00:00,18.8,10.0,30.09,West,269,15.5,22.0,68,0.00,-SN,OVC,0.00,0.0,WeatherDisplay:10.37,2013-02-21 01:00:00,
2013-02-20 20:05:00,18.8,10.0,30.09,West,265,6.2,16.1,68,0.00,-SN,OVC,0.00,0.0,WeatherDisplay:10.37,2013-02-21 01:05:00,
2013-02-20 20:10:00,18.8,10.0,30.09,WSW,256,8.0,18.4,68,0.00,-SN,OVC,0.00,0.0,WeatherDisplay:10.37,2013-02-21 01:10:00,
2013-02-20 20:15:00,18.7,9.9,30.09,WNW,286,8.4,16.1,68,0.00,-SN,OVC,0.00,0.0,WeatherDisplay:10.37,2013-02-21 01:15:00,
2013-02-20 20:20:00,18.6,10.1,30.09,WNW,286,9.6,19.6,69,0.00,-SN,OVC,0.00,0.0,WeatherDisplay:10.37,2013-02-21 01:20:00,
2013-02-20 20:25:00,18.6,10.1,30.09,West,275,7.4,17.3,69,0.00,-SN,OVC,0.00,0.0,WeatherDisplay:10.37,2013-02-21 01:25:00,
2013-02-20 20:30:00,18.5,10.0,30.10,West,265,9.3,19.6,69,0.00,-SN,OVC,0.00,0.0,WeatherDisplay:10.37,2013-02-21 01:30:00,
2013-02-20 20:35:00,18.5,10.0,30.10,WNW,282,8.4,16.1,69,0.00,-SN,OVC,0.00,0.0,WeatherDisplay:10.37,2013-02-21 01:35:00,
2013-02-20 20:40:00,18.4,9.9,30.10,WNW,298,11.4,24.0,69,0.00,-SN,OVC,0.00,0.0,WeatherDisplay:10.37,2013-02-21 01:40:00,
2013-02-20 20:45:00,18.4,9.9,30.10,WNW,291,7.9,17.3,69,0.00,-SN,OVC,0.00,0.0,WeatherDisplay:10.37,2013-02-21 01:45:00,
2013-02-20 20:50:00,18.4,9.6,30.10,West,259,8.5,23.0,68,0.00,-SN,OVC,0.00,0.0,WeatherDisplay:10.37,2013-02-21 01:50:00,
2013-02-20 20:55:00,18.3,9.5,30.10,West,277,12.3,25.3,68,0.00,-SN,OVC,0.00,0.0,WeatherDisplay:10.37,2013-02-21 01:55:00,
2013-02-20 21:00:00,18.2,9.7,30.10,West,270,7.2,18.4,69,0.00,-SN,OVC,0.00,0.0,WeatherDisplay:10.37,2013-02-21 02:00:00,
2013-02-20 21:05:00,18.1,10.0,30.11,West,280,7.9,19.6,70,0.00,-SN,OVC,0.00,0.0,WeatherDisplay:10.37,2013-02-21 02:05:00,
2013-02-20 21:10:00,18.1,9.6,30.10,West,275,10.9,17.3,69,0.00,-SN,OVC,0.00,0.0,WeatherDisplay:10.37,2013-02-21 02:10:00,
2013-02-20 21:15:00,18.1,9.6,30.10,WNW,290,10.6,16.1,69,0.00,-SN,OVC,0.00,0.0,WeatherDisplay:10.37,2013-02-21 02:15:00,
2013-02-20 21:20:00,18.1,9.6,30.10,WSW,257,8.7,13.8,69,0.00,-SN,OVC,0.00,0.0,WeatherDisplay:10.37,2013-02-21 02:20:00,
2013-02-20 21:25:00,18.1,9.6,30.10,WNW,290,6.7,12.7,69,0.00,-SN,OVC,0.00,0.0,WeatherDisplay:10.37,2013-02-21 02:25:00,
2013-02-20 21:30:00,18.2,10.1,30.10,West,269,7.3,15.0,70,0.00,-SN,OVC,0.00,0.0,WeatherDisplay:10.37,2013-02-21 02:30:00,
2013-02-20 21:35:00,18.1,10.0,30.10,West,271,8.7,14.0,70,0.00,-SN,OVC,0.00,0.0,WeatherDisplay:10.37,2013-02-21 02:35:00,
2013-02-20 21:40:00,18.2,10.4,30.10,WSW,251,12.5,20.0,71,0.00,-SN,OVC,0.00,0.0,WeatherDisplay:10.37,2013-02-21 02:40:00,
2013-02-20 21:45:00,18.2,10.4,30.10,WSW,253,9.2,18.4,71,0.00,-SN,OVC,0.00,0.0,WeatherDisplay:10.37,2013-02-21 02:45:00,
2013-02-20 21:50:00,18.3,10.5,30.10,West,270,6.6,15.0,71,0.00,-SN,OVC,0.00,0.0,WeatherDisplay:10.37,2013-02-21 02:50:00,
2013-02-20 21:55:00,18.3,10.5,30.10,West,269,7.1,19.6,71,0.00,-SN,OVC,0.00,0.0,WeatherDisplay:10.37,2013-02-21 02:55:00,
2013-02-20 22:00:00,18.4,10.2,30.10,WNW,290,7.7,18.4,70,0.00,-SN,OVC,0.00,0.0,WeatherDisplay:10.37,2013-02-21 03:00:00,
2013-02-20 22:05:00,18.5,10.3,30.10,WSW,253,7.9,17.3,70,0.00,-SN,OVC,0.00,0.0,WeatherDisplay:10.37,2013-02-21 03:05:00,
2013-02-20 22:10:00,18.5,10.3,30.10,WSW,257,5.6,10.4,70,0.00,-SN,OVC,0.00,0.0,WeatherDisplay:10.37,2013-02-21 03:10:00,
2013-02-20 22:15:00,18.6,10.4,30.10,West,260,6.4,12.7,70,0.00,-SN,OVC,0.00,0.0,WeatherDisplay:10.37,2013-02-21 03:15:00,
2013-02-20 22:20:00,18.6,10.4,30.10,WSW,253,9.1,13.0,70,0.00,-SN,OVC,0.00,0.0,WeatherDisplay:10.37,2013-02-21 03:20:00,
2013-02-20 22:25:00,18.6,10.4,30.10,West,269,7.2,11.5,70,0.00,-SN,OVC,0.00,0.0,WeatherDisplay:10.37,2013-02-21 03:25:00,
2013-02-20 22:30:00,18.7,10.5,30.09,West,259,5.5,14.0,70,0.00,-SN,OVC,0.00,0.0,WeatherDisplay:10.37,2013-02-21 03:30:00,
2013-02-20 22:36:00,18.7,10.5,30.10,WSW,253,6.5,11.5,70,0.00,-SN,OVC,0.00,0.0,WeatherDisplay:10.37,2013-02-21 03:36:00,
2013-02-20 22:41:00,18.7,10.5,30.09,West,267,12.9,23.0,70,0.00,-SN,OVC,0.00,0.0,WeatherDisplay:10.37,2013-02-21 03:41:00,
2013-02-20 22:46:00,18.8,10.6,30.09,WSW,247,13.3,19.0,70,0.00,-SN,OVC,0.00,0.0,WeatherDisplay:10.37,2013-02-21 03:46:00,
2013-02-20 22:51:00,18.8,10.6,30.09,West,265,7.4,16.1,70,0.00,-SN,OVC,0.00,0.0,WeatherDisplay:10.37,2013-02-21 03:51:00,
2013-02-20 22:56:00,18.9,10.7,30.09,WSW,256,10.5,16.1,70,0.00,-SN,OVC,0.00,0.0,WeatherDisplay:10.37,2013-02-21 03:56:00,
2013-02-20 23:01:00,18.9,10.7,30.09,West,259,11.1,20.7,70,0.00,-SN,OVC,0.00,0.0,WeatherDisplay:10.37,2013-02-21 04:01:00,
2013-02-20 23:06:00,19.0,10.8,30.09,WSW,248,9.4,16.1,70,0.00,-SN,OVC,0.00,0.0,WeatherDisplay:10.37,2013-02-21 04:06:00,
2013-02-20 23:11:00,19.0,10.8,30.09,WSW,252,11.7,23.0,70,0.00,-SN,OVC,0.00,0.0,WeatherDisplay:10.37,2013-02-21 04:11:00,
2013-02-20 23:16:00,19.0,10.8,30.09,WSW,250,10.6,15.0,70,0.00,-SN,OVC,0.00,0.0,WeatherDisplay:10.37,2013-02-21 04:16:00,
2013-02-20 23:21:00,19.0,10.8,30.09,WSW,257,11.0,19.6,70,0.00,-SN,OVC,0.00,0.0,WeatherDisplay:10.37,2013-02-21 04:21:00,
2013-02-20 23:26:00,19.1,10.9,30.08,WSW,254,8.6,20.7,70,0.00,-SN,OVC,0.00,0.0,WeatherDisplay:10.37,2013-02-21 04:26:00,
2013-02-20 23:31:00,19.1,11.2,30.08,WSW,246,9.2,17.3,71,0.00,-SN,OVC,0.00,0.0,WeatherDisplay:10.37,2013-02-21 04:31:00,
2013-02-20 23:36:00,19.1,11.2,30.08,WSW,255,8.1,15.0,71,0.00,-SN,OVC,0.00,0.0,WeatherDisplay:10.37,2013-02-21 04:36:00,
2013-02-20 23:41:00,19.1,11.2,30.08,WSW,255,10.2,15.0,71,0.00,-SN,OVC,0.00,0.0,WeatherDisplay:10.37,2013-02-21 04:41:00,
2013-02-20 23:46:00,19.2,11.3,30.08,WSW,255,14.4,19.6,71,0.00,-SN,OVC,0.00,0.0,WeatherDisplay:10.37,2013-02-21 04:46:00,
2013-02-20 23:51:00,19.3,11.1,30.09,West,263,6.0,12.0,70,0.00,-SN,OVC,0.00,0.0,WeatherDisplay:10.37,2013-02-21 04:51:00,
2013-02-20 23:56:00,19.4,11.2,30.08,West,259,13.7,21.0,70,0.00,-SN,OVC,0.00,0.0,WeatherDisplay:10.37,2013-02-21 04:56:00,